sensor_id;sensor_type;location;lat;lon;timestamp;temperature;humidity
65460;DHT22;52058;49.822;6.754;2023-05-07T00:00:20;12.34;95.94
65460;DHT22;52058;49.822;6.754;2023-05-07T00:02:47;12.32;96.31
65460;DHT22;52058;49.822;6.754;2023-05-07T00:05:16;12.29;96.38
65460;DHT22;52058;49.822;6.754;2023-05-07T00:07:43;12.22;96.52
65460;DHT22;52058;49.822;6.754;2023-05-07T00:10:10;12.18;96.64
65460;DHT22;52058;49.822;6.754;2023-05-07T00:12:37;12.02;96.30
65460;DHT22;52058;49.822;6.754;2023-05-07T00:15:05;11.95;96.44
65460;DHT22;52058;49.822;6.754;2023-05-07T00:17:33;11.86;96.93
65460;DHT22;52058;49.822;6.754;2023-05-07T00:19:59;11.80;97.20
65460;DHT22;52058;49.822;6.754;2023-05-07T00:22:27;11.76;97.41
65460;DHT22;52058;49.822;6.754;2023-05-07T00:24:55;11.76;97.57
65460;DHT22;52058;49.822;6.754;2023-05-07T00:27:22;11.70;97.78
65460;DHT22;52058;49.822;6.754;2023-05-07T00:29:48;11.62;97.48
65460;DHT22;52058;49.822;6.754;2023-05-07T00:32:15;11.55;97.21
65460;DHT22;52058;49.822;6.754;2023-05-07T00:34:42;11.53;97.14
65460;DHT22;52058;49.822;6.754;2023-05-07T00:37:09;11.49;97.47
65460;DHT22;52058;49.822;6.754;2023-05-07T00:39:38;11.44;97.81
65460;DHT22;52058;49.822;6.754;2023-05-07T00:42:05;11.39;97.85
65460;DHT22;52058;49.822;6.754;2023-05-07T00:44:31;11.35;98.20
65460;DHT22;52058;49.822;6.754;2023-05-07T00:46:58;11.28;98.22
65460;DHT22;52058;49.822;6.754;2023-05-07T00:49:33;11.19;98.32
65460;DHT22;52058;49.822;6.754;2023-05-07T00:52:01;11.19;98.34
65460;DHT22;52058;49.822;6.754;2023-05-07T00:54:28;11.12;98.28
65460;DHT22;52058;49.822;6.754;2023-05-07T00:56:56;11.05;98.43
65460;DHT22;52058;49.822;6.754;2023-05-07T00:59:23;11.04;98.61
65460;DHT22;52058;49.822;6.754;2023-05-07T01:01:50;10.97;99.02
65460;DHT22;52058;49.822;6.754;2023-05-07T01:04:17;10.89;98.53
65460;DHT22;52058;49.822;6.754;2023-05-07T01:06:44;10.85;98.56
65460;DHT22;52058;49.822;6.754;2023-05-07T01:09:11;10.78;98.83
65460;DHT22;52058;49.822;6.754;2023-05-07T01:11:39;10.77;98.86
65460;DHT22;52058;49.822;6.754;2023-05-07T01:14:08;10.79;99.38
65460;DHT22;52058;49.822;6.754;2023-05-07T01:16:36;10.79;99.11
65460;DHT22;52058;49.822;6.754;2023-05-07T01:19:03;10.77;99.41
65460;DHT22;52058;49.822;6.754;2023-05-07T01:21:32;10.77;99.28
65460;DHT22;52058;49.822;6.754;2023-05-07T01:24:01;10.72;99.53
65460;DHT22;52058;49.822;6.754;2023-05-07T01:26:28;10.72;99.78
65460;DHT22;52058;49.822;6.754;2023-05-07T01:28:54;10.72;99.27
65460;DHT22;52058;49.822;6.754;2023-05-07T01:31:21;10.71;99.09
65460;DHT22;52058;49.822;6.754;2023-05-07T01:33:51;10.70;99.37
65460;DHT22;52058;49.822;6.754;2023-05-07T01:36:20;10.68;99.51
65460;DHT22;52058;49.822;6.754;2023-05-07T01:38:49;10.65;99.37
65460;DHT22;52058;49.822;6.754;2023-05-07T01:41:18;10.64;99.45
65460;DHT22;52058;49.822;6.754;2023-05-07T01:43:48;10.60;99.47
65460;DHT22;52058;49.822;6.754;2023-05-07T01:46:16;10.56;99.85
65460;DHT22;52058;49.822;6.754;2023-05-07T01:48:44;10.56;99.94
65460;DHT22;52058;49.822;6.754;2023-05-07T01:51:11;10.53;99.86
65460;DHT22;52058;49.822;6.754;2023-05-07T01:53:38;10.44;99.76
65460;DHT22;52058;49.822;6.754;2023-05-07T01:56:06;10.40;99.68
65460;DHT22;52058;49.822;6.754;2023-05-07T01:58:34;10.43;99.99
65460;DHT22;52058;49.822;6.754;2023-05-07T02:01:01;10.41;99.99
65460;DHT22;52058;49.822;6.754;2023-05-07T02:03:27;10.39;99.99
65460;DHT22;52058;49.822;6.754;2023-05-07T02:05:54;10.33;99.47
65460;DHT22;52058;49.822;6.754;2023-05-07T02:08:20;10.26;99.44
65460;DHT22;52058;49.822;6.754;2023-05-07T02:10:47;10.19;99.57
65460;DHT22;52058;49.822;6.754;2023-05-07T02:13:15;10.13;99.88
65460;DHT22;52058;49.822;6.754;2023-05-07T02:15:43;10.09;99.91
65460;DHT22;52058;49.822;6.754;2023-05-07T02:18:12;10.10;99.99
65460;DHT22;52058;49.822;6.754;2023-05-07T02:20:39;10.06;99.99
65460;DHT22;52058;49.822;6.754;2023-05-07T02:23:05;10.06;99.26
65460;DHT22;52058;49.822;6.754;2023-05-07T02:25:32;9.98;99.17
65460;DHT22;52058;49.822;6.754;2023-05-07T02:27:58;9.98;99.45
65460;DHT22;52058;49.822;6.754;2023-05-07T02:30:25;10.05;99.38
65460;DHT22;52058;49.822;6.754;2023-05-07T02:32:53;9.99;99.45
65460;DHT22;52058;49.822;6.754;2023-05-07T02:35:20;9.98;99.42
65460;DHT22;52058;49.822;6.754;2023-05-07T02:37:46;9.93;99.47
65460;DHT22;52058;49.822;6.754;2023-05-07T02:40:13;9.92;99.51
65460;DHT22;52058;49.822;6.754;2023-05-07T02:42:39;9.88;99.52
65460;DHT22;52058;49.822;6.754;2023-05-07T02:45:07;9.86;99.27
65460;DHT22;52058;49.822;6.754;2023-05-07T02:47:34;9.88;99.60
65460;DHT22;52058;49.822;6.754;2023-05-07T02:50:02;9.85;99.81
65460;DHT22;52058;49.822;6.754;2023-05-07T02:52:28;9.78;99.63
65460;DHT22;52058;49.822;6.754;2023-05-07T02:54:55;9.74;99.67
65460;DHT22;52058;49.822;6.754;2023-05-07T02:57:21;9.71;99.45
65460;DHT22;52058;49.822;6.754;2023-05-07T02:59:48;9.69;99.70
65460;DHT22;52058;49.822;6.754;2023-05-07T03:02:15;9.63;99.81
65460;DHT22;52058;49.822;6.754;2023-05-07T03:04:41;9.61;99.91
65460;DHT22;52058;49.822;6.754;2023-05-07T03:07:09;9.58;99.65
65460;DHT22;52058;49.822;6.754;2023-05-07T03:09:36;9.59;99.94
65460;DHT22;52058;49.822;6.754;2023-05-07T03:12:03;9.57;99.82
65460;DHT22;52058;49.822;6.754;2023-05-07T03:14:29;9.55;99.99
65460;DHT22;52058;49.822;6.754;2023-05-07T03:16:56;9.50;99.99
65460;DHT22;52058;49.822;6.754;2023-05-07T03:19:22;9.44;99.73
65460;DHT22;52058;49.822;6.754;2023-05-07T03:21:49;9.31;99.35
65460;DHT22;52058;49.822;6.754;2023-05-07T03:24:17;9.37;99.99
65460;DHT22;52058;49.822;6.754;2023-05-07T03:26:43;9.40;99.99
65460;DHT22;52058;49.822;6.754;2023-05-07T03:35:53;9.44;99.99
65460;DHT22;52058;49.822;6.754;2023-05-07T03:38:20;9.51;99.65
65460;DHT22;52058;49.822;6.754;2023-05-07T03:40:48;9.50;98.96
65460;DHT22;52058;49.822;6.754;2023-05-07T03:43:14;9.65;99.89
65460;DHT22;52058;49.822;6.754;2023-05-07T03:45:41;9.78;99.80
65460;DHT22;52058;49.822;6.754;2023-05-07T03:48:08;9.88;99.54
65460;DHT22;52058;49.822;6.754;2023-05-07T03:50:35;9.92;99.40
65460;DHT22;52058;49.822;6.754;2023-05-07T03:53:01;9.95;99.32
65460;DHT22;52058;49.822;6.754;2023-05-07T03:55:28;9.98;99.30
65460;DHT22;52058;49.822;6.754;2023-05-07T03:57:56;9.90;99.43
65460;DHT22;52058;49.822;6.754;2023-05-07T04:00:23;9.86;99.41
65460;DHT22;52058;49.822;6.754;2023-05-07T04:02:49;9.81;99.14
65460;DHT22;52058;49.822;6.754;2023-05-07T04:05:16;9.77;98.96
65460;DHT22;52058;49.822;6.754;2023-05-07T04:07:42;9.68;98.97
65460;DHT22;52058;49.822;6.754;2023-05-07T04:10:09;9.63;98.95
65460;DHT22;52058;49.822;6.754;2023-05-07T04:12:36;9.54;99.08
65460;DHT22;52058;49.822;6.754;2023-05-07T04:15:05;9.55;99.35
65460;DHT22;52058;49.822;6.754;2023-05-07T04:17:31;9.54;99.51
65460;DHT22;52058;49.822;6.754;2023-05-07T04:19:58;9.57;99.53
65460;DHT22;52058;49.822;6.754;2023-05-07T04:22:25;9.59;99.69
65460;DHT22;52058;49.822;6.754;2023-05-07T04:24:51;9.68;99.64
65460;DHT22;52058;49.822;6.754;2023-05-07T04:27:18;9.74;99.41
65460;DHT22;52058;49.822;6.754;2023-05-07T04:29:45;9.81;99.38
65460;DHT22;52058;49.822;6.754;2023-05-07T04:32:13;9.82;99.46
65460;DHT22;52058;49.822;6.754;2023-05-07T04:34:40;9.93;99.33
65460;DHT22;52058;49.822;6.754;2023-05-07T04:37:06;9.99;99.16
65460;DHT22;52058;49.822;6.754;2023-05-07T04:39:33;10.06;99.18
65460;DHT22;52058;49.822;6.754;2023-05-07T04:42:00;10.13;99.00
65460;DHT22;52058;49.822;6.754;2023-05-07T04:44:28;10.21;98.99
65460;DHT22;52058;49.822;6.754;2023-05-07T04:46:56;10.27;99.02
65460;DHT22;52058;49.822;6.754;2023-05-07T04:49:24;10.33;98.88
65460;DHT22;52058;49.822;6.754;2023-05-07T04:51:50;10.43;98.34
65460;DHT22;52058;49.822;6.754;2023-05-07T04:54:17;10.37;98.18
65460;DHT22;52058;49.822;6.754;2023-05-07T04:56:43;10.43;98.42
65460;DHT22;52058;49.822;6.754;2023-05-07T04:59:10;10.44;98.68
65460;DHT22;52058;49.822;6.754;2023-05-07T05:01:37;10.48;98.51
65460;DHT22;52058;49.822;6.754;2023-05-07T05:04:03;10.57;98.27
65460;DHT22;52058;49.822;6.754;2023-05-07T05:06:31;10.67;98.02
65460;DHT22;52058;49.822;6.754;2023-05-07T05:08:58;10.72;97.86
65460;DHT22;52058;49.822;6.754;2023-05-07T05:11:24;10.78;97.98
65460;DHT22;52058;49.822;6.754;2023-05-07T05:13:51;10.77;98.43
65460;DHT22;52058;49.822;6.754;2023-05-07T05:16:17;10.79;98.70
65460;DHT22;52058;49.822;6.754;2023-05-07T05:18:44;10.87;98.83
65460;DHT22;52058;49.822;6.754;2023-05-07T05:21:10;10.91;99.04
65460;DHT22;52058;49.822;6.754;2023-05-07T05:23:38;10.97;98.92
65460;DHT22;52058;49.822;6.754;2023-05-07T05:26:05;11.12;98.79
65460;DHT22;52058;49.822;6.754;2023-05-07T05:28:31;11.20;98.73
65460;DHT22;52058;49.822;6.754;2023-05-07T05:30:58;11.35;98.60
65460;DHT22;52058;49.822;6.754;2023-05-07T05:33:25;11.46;98.46
65460;DHT22;52058;49.822;6.754;2023-05-07T05:35:51;11.56;98.15
65460;DHT22;52058;49.822;6.754;2023-05-07T05:38:18;11.65;97.97
65460;DHT22;52058;49.822;6.754;2023-05-07T05:40:47;11.86;97.58
65460;DHT22;52058;49.822;6.754;2023-05-07T05:43:14;11.98;97.48
65460;DHT22;52058;49.822;6.754;2023-05-07T05:45:40;12.11;96.79
65460;DHT22;52058;49.822;6.754;2023-05-07T05:48:07;12.21;96.65
65460;DHT22;52058;49.822;6.754;2023-05-07T05:50:33;12.29;96.61
65460;DHT22;52058;49.822;6.754;2023-05-07T05:53:01;12.45;96.10
65460;DHT22;52058;49.822;6.754;2023-05-07T05:55:27;12.56;96.19
65460;DHT22;52058;49.822;6.754;2023-05-07T05:57:55;12.67;96.47
65460;DHT22;52058;49.822;6.754;2023-05-07T06:00:22;12.75;96.59
65460;DHT22;52058;49.822;6.754;2023-05-07T06:02:49;12.77;96.64
65460;DHT22;52058;49.822;6.754;2023-05-07T06:05:15;12.89;96.66
65460;DHT22;52058;49.822;6.754;2023-05-07T06:07:42;12.96;95.74
65460;DHT22;52058;49.822;6.754;2023-05-07T06:10:09;13.08;95.04
65460;DHT22;52058;49.822;6.754;2023-05-07T06:12:35;13.07;94.67
65460;DHT22;52058;49.822;6.754;2023-05-07T06:15:04;13.20;94.07
65460;DHT22;52058;49.822;6.754;2023-05-07T06:17:31;13.45;93.50
65460;DHT22;52058;49.822;6.754;2023-05-07T06:19:57;13.66;93.13
65460;DHT22;52058;49.822;6.754;2023-05-07T06:22:24;13.90;92.44
65460;DHT22;52058;49.822;6.754;2023-05-07T06:24:51;14.00;92.49
65460;DHT22;52058;49.822;6.754;2023-05-07T06:27:17;14.17;92.29
65460;DHT22;52058;49.822;6.754;2023-05-07T06:29:44;14.42;91.74
65460;DHT22;52058;49.822;6.754;2023-05-07T06:32:13;14.64;91.71
65460;DHT22;52058;49.822;6.754;2023-05-07T06:34:40;14.84;91.12
65460;DHT22;52058;49.822;6.754;2023-05-07T06:37:07;14.93;90.52
65460;DHT22;52058;49.822;6.754;2023-05-07T06:39:33;15.00;90.09
65460;DHT22;52058;49.822;6.754;2023-05-07T06:42:00;15.23;89.53
65460;DHT22;52058;49.822;6.754;2023-05-07T06:44:27;15.35;89.12
65460;DHT22;52058;49.822;6.754;2023-05-07T06:46:53;15.46;87.89
65460;DHT22;52058;49.822;6.754;2023-05-07T06:49:21;15.68;87.59
65460;DHT22;52058;49.822;6.754;2023-05-07T06:51:48;15.83;87.31
65460;DHT22;52058;49.822;6.754;2023-05-07T06:54:14;15.91;86.58
65460;DHT22;52058;49.822;6.754;2023-05-07T06:56:41;16.05;85.82
65460;DHT22;52058;49.822;6.754;2023-05-07T06:59:08;16.24;85.12
65460;DHT22;52058;49.822;6.754;2023-05-07T07:01:34;16.39;84.57
65460;DHT22;52058;49.822;6.754;2023-05-07T07:04:01;16.35;85.20
65460;DHT22;52058;49.822;6.754;2023-05-07T07:06:29;16.57;84.46
65460;DHT22;52058;49.822;6.754;2023-05-07T07:08:56;16.66;84.09
65460;DHT22;52058;49.822;6.754;2023-05-07T07:11:23;16.77;83.95
65460;DHT22;52058;49.822;6.754;2023-05-07T07:13:50;16.80;84.51
65460;DHT22;52058;49.822;6.754;2023-05-07T07:16:16;16.97;83.68
65460;DHT22;52058;49.822;6.754;2023-05-07T07:18:43;17.04;83.70
65460;DHT22;52058;49.822;6.754;2023-05-07T07:21:10;17.07;83.60
65460;DHT22;52058;49.822;6.754;2023-05-07T07:23:38;17.17;83.05
65460;DHT22;52058;49.822;6.754;2023-05-07T07:26:04;17.35;82.18
65460;DHT22;52058;49.822;6.754;2023-05-07T07:28:31;17.44;83.27
65460;DHT22;52058;49.822;6.754;2023-05-07T07:30:58;17.63;82.24
65460;DHT22;52058;49.822;6.754;2023-05-07T07:33:25;17.35;82.16
65460;DHT22;52058;49.822;6.754;2023-05-07T07:35:52;17.36;82.34
65460;DHT22;52058;49.822;6.754;2023-05-07T07:38:18;17.56;81.97
65460;DHT22;52058;49.822;6.754;2023-05-07T07:40:48;17.85;81.95
65460;DHT22;52058;49.822;6.754;2023-05-07T07:43:15;17.86;81.05
65460;DHT22;52058;49.822;6.754;2023-05-07T07:45:41;17.86;80.23
65460;DHT22;52058;49.822;6.754;2023-05-07T07:48:08;18.10;79.67
65460;DHT22;52058;49.822;6.754;2023-05-07T07:50:34;18.24;78.71
65460;DHT22;52058;49.822;6.754;2023-05-07T07:53:01;18.41;78.72
65460;DHT22;52058;49.822;6.754;2023-05-07T07:55:28;18.65;78.38
65460;DHT22;52058;49.822;6.754;2023-05-07T07:57:57;18.69;77.07
65460;DHT22;52058;49.822;6.754;2023-05-07T08:00:24;18.91;76.82
65460;DHT22;52058;49.822;6.754;2023-05-07T08:02:50;18.78;76.33
65460;DHT22;52058;49.822;6.754;2023-05-07T08:05:17;18.95;76.03
65460;DHT22;52058;49.822;6.754;2023-05-07T08:07:44;19.03;75.48
65460;DHT22;52058;49.822;6.754;2023-05-07T08:10:11;19.13;76.23
65460;DHT22;52058;49.822;6.754;2023-05-07T08:12:38;19.26;75.58
65460;DHT22;52058;49.822;6.754;2023-05-07T08:15:07;19.51;75.52
65460;DHT22;52058;49.822;6.754;2023-05-07T08:17:33;19.54;75.94
65460;DHT22;52058;49.822;6.754;2023-05-07T08:20:00;19.41;75.16
65460;DHT22;52058;49.822;6.754;2023-05-07T08:22:27;19.53;75.65
65460;DHT22;52058;49.822;6.754;2023-05-07T08:24:53;19.54;75.14
65460;DHT22;52058;49.822;6.754;2023-05-07T08:27:20;19.74;75.27
65460;DHT22;52058;49.822;6.754;2023-05-07T08:29:47;19.59;75.29
65460;DHT22;52058;49.822;6.754;2023-05-07T08:32:16;19.67;75.53
65460;DHT22;52058;49.822;6.754;2023-05-07T08:34:43;19.75;75.36
65460;DHT22;52058;49.822;6.754;2023-05-07T08:37:10;19.82;75.10
65460;DHT22;52058;49.822;6.754;2023-05-07T08:39:36;19.71;75.33
65460;DHT22;52058;49.822;6.754;2023-05-07T08:42:04;19.71;75.72
65460;DHT22;52058;49.822;6.754;2023-05-07T08:44:33;20.05;75.34
65460;DHT22;52058;49.822;6.754;2023-05-07T08:47:01;20.12;74.67
65460;DHT22;52058;49.822;6.754;2023-05-07T08:49:29;20.19;74.42
65460;DHT22;52058;49.822;6.754;2023-05-07T08:51:55;20.33;74.09
65460;DHT22;52058;49.822;6.754;2023-05-07T08:54:22;20.30;74.05
65460;DHT22;52058;49.822;6.754;2023-05-07T08:56:50;20.32;74.33
65460;DHT22;52058;49.822;6.754;2023-05-07T08:59:16;20.69;74.15
65460;DHT22;52058;49.822;6.754;2023-05-07T09:01:43;20.70;73.16
65460;DHT22;52058;49.822;6.754;2023-05-07T09:04:10;20.80;72.20
65460;DHT22;52058;49.822;6.754;2023-05-07T09:06:39;21.11;71.92
65460;DHT22;52058;49.822;6.754;2023-05-07T09:09:07;21.18;71.53
65460;DHT22;52058;49.822;6.754;2023-05-07T09:11:34;21.23;70.66
65460;DHT22;52058;49.822;6.754;2023-05-07T09:14:00;21.34;70.78
65460;DHT22;52058;49.822;6.754;2023-05-07T09:16:29;21.61;71.22
65460;DHT22;52058;49.822;6.754;2023-05-07T09:18:58;21.79;70.34
65460;DHT22;52058;49.822;6.754;2023-05-07T09:21:24;21.92;68.99
65460;DHT22;52058;49.822;6.754;2023-05-07T09:23:54;21.92;68.21
65460;DHT22;52058;49.822;6.754;2023-05-07T09:26:21;21.89;68.22
65460;DHT22;52058;49.822;6.754;2023-05-07T09:28:48;21.92;68.62
65460;DHT22;52058;49.822;6.754;2023-05-07T09:31:15;21.78;68.42
65460;DHT22;52058;49.822;6.754;2023-05-07T09:33:41;21.75;68.85
65460;DHT22;52058;49.822;6.754;2023-05-07T09:36:09;21.71;68.65
65460;DHT22;52058;49.822;6.754;2023-05-07T09:38:37;21.82;68.23
65460;DHT22;52058;49.822;6.754;2023-05-07T09:41:06;21.90;67.66
65460;DHT22;52058;49.822;6.754;2023-05-07T09:43:34;21.76;67.92
65460;DHT22;52058;49.822;6.754;2023-05-07T09:46:03;21.78;68.36
65460;DHT22;52058;49.822;6.754;2023-05-07T09:48:30;21.81;69.31
65460;DHT22;52058;49.822;6.754;2023-05-07T09:51:01;21.79;69.30
65460;DHT22;52058;49.822;6.754;2023-05-07T09:53:29;21.59;69.01
65460;DHT22;52058;49.822;6.754;2023-05-07T09:55:56;21.65;68.45
65460;DHT22;52058;49.822;6.754;2023-05-07T09:58:25;21.72;67.87
65460;DHT22;52058;49.822;6.754;2023-05-07T10:00:52;21.71;67.34
65460;DHT22;52058;49.822;6.754;2023-05-07T10:03:20;21.81;65.69
65460;DHT22;52058;49.822;6.754;2023-05-07T10:05:48;21.90;67.05
65460;DHT22;52058;49.822;6.754;2023-05-07T10:08:15;21.89;66.59
65460;DHT22;52058;49.822;6.754;2023-05-07T10:10:42;21.96;66.31
65460;DHT22;52058;49.822;6.754;2023-05-07T10:13:10;21.96;66.42
65460;DHT22;52058;49.822;6.754;2023-05-07T10:15:38;22.09;66.88
65460;DHT22;52058;49.822;6.754;2023-05-07T10:18:06;22.17;66.95
65460;DHT22;52058;49.822;6.754;2023-05-07T10:20:33;22.00;66.46
65460;DHT22;52058;49.822;6.754;2023-05-07T10:23:02;22.03;65.64
65460;DHT22;52058;49.822;6.754;2023-05-07T10:25:30;21.96;65.41
65460;DHT22;52058;49.822;6.754;2023-05-07T10:28:01;22.12;65.11
65460;DHT22;52058;49.822;6.754;2023-05-07T10:30:35;22.23;66.34
65460;DHT22;52058;49.822;6.754;2023-05-07T10:33:06;22.14;65.98
65460;DHT22;52058;49.822;6.754;2023-05-07T10:35:38;22.24;66.03
65460;DHT22;52058;49.822;6.754;2023-05-07T10:38:06;22.51;64.20
65460;DHT22;52058;49.822;6.754;2023-05-07T10:40:32;22.71;63.16
65460;DHT22;52058;49.822;6.754;2023-05-07T10:43:01;22.96;61.64
65460;DHT22;52058;49.822;6.754;2023-05-07T10:45:28;23.18;61.46
65460;DHT22;52058;49.822;6.754;2023-05-07T10:48:07;23.53;60.26
65460;DHT22;52058;49.822;6.754;2023-05-07T10:50:34;23.85;59.68
65460;DHT22;52058;49.822;6.754;2023-05-07T10:53:20;24.19;57.91
65460;DHT22;52058;49.822;6.754;2023-05-07T10:55:48;24.21;58.71
65460;DHT22;52058;49.822;6.754;2023-05-07T10:58:25;24.62;58.50
65460;DHT22;52058;49.822;6.754;2023-05-07T11:00:56;24.82;58.31
65460;DHT22;52058;49.822;6.754;2023-05-07T11:03:24;24.79;57.30
65460;DHT22;52058;49.822;6.754;2023-05-07T11:06:09;24.72;57.04
65460;DHT22;52058;49.822;6.754;2023-05-07T11:08:55;24.46;57.77
65460;DHT22;52058;49.822;6.754;2023-05-07T11:11:49;24.28;58.59
65460;DHT22;52058;49.822;6.754;2023-05-07T11:14:44;24.08;58.42
65460;DHT22;52058;49.822;6.754;2023-05-07T11:17:11;23.90;59.44
65460;DHT22;52058;49.822;6.754;2023-05-07T11:19:52;23.81;59.78
65460;DHT22;52058;49.822;6.754;2023-05-07T11:22:36;23.80;59.91
65460;DHT22;52058;49.822;6.754;2023-05-07T11:25:05;23.94;60.73
65460;DHT22;52058;49.822;6.754;2023-05-07T11:27:33;23.93;60.20
65460;DHT22;52058;49.822;6.754;2023-05-07T11:29:59;24.04;60.97
65460;DHT22;52058;49.822;6.754;2023-05-07T11:32:28;24.18;60.51
65460;DHT22;52058;49.822;6.754;2023-05-07T11:34:57;24.15;59.52
65460;DHT22;52058;49.822;6.754;2023-05-07T11:37:25;24.42;59.25
65460;DHT22;52058;49.822;6.754;2023-05-07T11:40:02;24.53;59.62
65460;DHT22;52058;49.822;6.754;2023-05-07T11:42:30;24.98;60.87
65460;DHT22;52058;49.822;6.754;2023-05-07T11:44:58;24.88;60.79
65460;DHT22;52058;49.822;6.754;2023-05-07T11:47:24;24.94;60.23
65460;DHT22;52058;49.822;6.754;2023-05-07T11:49:52;25.07;62.44
65460;DHT22;52058;49.822;6.754;2023-05-07T11:52:21;25.16;60.45
65460;DHT22;52058;49.822;6.754;2023-05-07T11:54:51;24.97;58.31
65460;DHT22;52058;49.822;6.754;2023-05-07T11:57:19;25.02;57.80
65460;DHT22;52058;49.822;6.754;2023-05-07T11:59:45;25.02;56.42
65460;DHT22;52058;49.822;6.754;2023-05-07T12:02:13;25.25;56.67
65460;DHT22;52058;49.822;6.754;2023-05-07T12:04:40;25.44;58.16
65460;DHT22;52058;49.822;6.754;2023-05-07T12:07:11;25.48;56.13
65460;DHT22;52058;49.822;6.754;2023-05-07T12:09:40;25.83;54.86
65460;DHT22;52058;49.822;6.754;2023-05-07T12:12:07;25.73;55.81
65460;DHT22;52058;49.822;6.754;2023-05-07T12:14:37;25.83;55.25
65460;DHT22;52058;49.822;6.754;2023-05-07T12:17:05;26.00;54.49
65460;DHT22;52058;49.822;6.754;2023-05-07T12:19:33;26.24;53.62
65460;DHT22;52058;49.822;6.754;2023-05-07T12:22:01;26.51;52.73
65460;DHT22;52058;49.822;6.754;2023-05-07T12:24:27;26.54;52.79
65460;DHT22;52058;49.822;6.754;2023-05-07T12:26:55;27.01;51.40
65460;DHT22;52058;49.822;6.754;2023-05-07T12:29:22;27.25;49.99
65460;DHT22;52058;49.822;6.754;2023-05-07T12:31:49;26.84;52.17
65460;DHT22;52058;49.822;6.754;2023-05-07T12:34:16;26.95;52.64
65460;DHT22;52058;49.822;6.754;2023-05-07T12:36:43;26.34;55.61
65460;DHT22;52058;49.822;6.754;2023-05-07T12:39:09;26.07;54.65
65460;DHT22;52058;49.822;6.754;2023-05-07T12:41:36;26.17;54.32
65460;DHT22;52058;49.822;6.754;2023-05-07T12:44:19;26.60;53.72
65460;DHT22;52058;49.822;6.754;2023-05-07T12:46:46;26.54;53.14
65460;DHT22;52058;49.822;6.754;2023-05-07T12:49:13;26.39;54.59
65460;DHT22;52058;49.822;6.754;2023-05-07T12:51:39;26.07;55.04
65460;DHT22;52058;49.822;6.754;2023-05-07T12:54:06;25.86;54.80
65460;DHT22;52058;49.822;6.754;2023-05-07T12:56:35;26.09;54.51
65460;DHT22;52058;49.822;6.754;2023-05-07T12:59:02;25.86;54.08
65460;DHT22;52058;49.822;6.754;2023-05-07T13:01:31;26.12;52.98
65460;DHT22;52058;49.822;6.754;2023-05-07T13:04:00;26.24;54.20
65460;DHT22;52058;49.822;6.754;2023-05-07T13:06:30;26.03;54.11
65460;DHT22;52058;49.822;6.754;2023-05-07T13:08:56;26.10;54.23
65460;DHT22;52058;49.822;6.754;2023-05-07T13:11:23;25.76;53.36
65460;DHT22;52058;49.822;6.754;2023-05-07T13:13:50;25.59;55.61
65460;DHT22;52058;49.822;6.754;2023-05-07T13:16:16;24.76;56.58
65460;DHT22;52058;49.822;6.754;2023-05-07T13:18:44;24.42;57.60
65460;DHT22;52058;49.822;6.754;2023-05-07T13:21:11;24.36;56.26
65460;DHT22;52058;49.822;6.754;2023-05-07T13:23:38;24.46;57.05
65460;DHT22;52058;49.822;6.754;2023-05-07T13:26:05;24.45;58.20
65460;DHT22;52058;49.822;6.754;2023-05-07T13:28:32;24.07;57.40
65460;DHT22;52058;49.822;6.754;2023-05-07T13:30:58;24.04;58.01
65460;DHT22;52058;49.822;6.754;2023-05-07T13:33:25;23.82;57.39
65460;DHT22;52058;49.822;6.754;2023-05-07T13:35:53;24.01;58.47
65460;DHT22;52058;49.822;6.754;2023-05-07T13:38:22;24.05;57.61
65460;DHT22;52058;49.822;6.754;2023-05-07T13:40:48;23.78;59.16
65460;DHT22;52058;49.822;6.754;2023-05-07T13:43:15;23.97;58.96
65460;DHT22;52058;49.822;6.754;2023-05-07T13:45:42;23.96;58.43
65460;DHT22;52058;49.822;6.754;2023-05-07T13:48:09;23.91;59.81
65460;DHT22;52058;49.822;6.754;2023-05-07T13:50:35;23.85;59.52
65460;DHT22;52058;49.822;6.754;2023-05-07T13:53:03;24.24;59.46
65460;DHT22;52058;49.822;6.754;2023-05-07T13:55:33;24.15;58.92
65460;DHT22;52058;49.822;6.754;2023-05-07T13:58:01;24.46;58.12
65460;DHT22;52058;49.822;6.754;2023-05-07T14:00:28;24.46;57.87
65460;DHT22;52058;49.822;6.754;2023-05-07T14:02:55;24.57;57.35
65460;DHT22;52058;49.822;6.754;2023-05-07T14:05:23;24.52;57.42
65460;DHT22;52058;49.822;6.754;2023-05-07T14:07:51;24.63;57.76
65460;DHT22;52058;49.822;6.754;2023-05-07T14:10:19;24.72;57.55
65460;DHT22;52058;49.822;6.754;2023-05-07T14:12:46;25.06;57.57
65460;DHT22;52058;49.822;6.754;2023-05-07T14:15:13;24.91;57.60
65460;DHT22;52058;49.822;6.754;2023-05-07T14:17:39;24.80;57.73
65460;DHT22;52058;49.822;6.754;2023-05-07T14:20:07;24.26;58.38
65460;DHT22;52058;49.822;6.754;2023-05-07T14:22:34;24.69;58.87
65460;DHT22;52058;49.822;6.754;2023-05-07T14:25:00;24.66;58.80
65460;DHT22;52058;49.822;6.754;2023-05-07T14:27:28;24.60;57.51
65460;DHT22;52058;49.822;6.754;2023-05-07T14:29:55;24.66;58.12
65460;DHT22;52058;49.822;6.754;2023-05-07T14:32:22;24.90;59.10
65460;DHT22;52058;49.822;6.754;2023-05-07T14:34:48;24.30;59.01
65460;DHT22;52058;49.822;6.754;2023-05-07T14:37:15;24.66;59.16
65460;DHT22;52058;49.822;6.754;2023-05-07T14:39:43;24.72;58.11
65460;DHT22;52058;49.822;6.754;2023-05-07T14:42:09;25.57;57.69
65460;DHT22;52058;49.822;6.754;2023-05-07T14:44:39;25.71;56.85
65460;DHT22;52058;49.822;6.754;2023-05-07T14:47:06;25.64;56.74
65460;DHT22;52058;49.822;6.754;2023-05-07T14:49:33;25.59;56.57
65460;DHT22;52058;49.822;6.754;2023-05-07T14:52:00;25.96;55.77
65460;DHT22;52058;49.822;6.754;2023-05-07T14:54:27;26.50;54.31
65460;DHT22;52058;49.822;6.754;2023-05-07T14:56:54;27.25;52.98
65460;DHT22;52058;49.822;6.754;2023-05-07T14:59:22;28.39;51.81
65460;DHT22;52058;49.822;6.754;2023-05-07T15:01:51;29.85;49.54
65460;DHT22;52058;49.822;6.754;2023-05-07T15:04:19;31.63;46.13
65460;DHT22;52058;49.822;6.754;2023-05-07T15:06:46;31.53;45.12
65460;DHT22;52058;49.822;6.754;2023-05-07T15:09:12;32.66;42.84
65460;DHT22;52058;49.822;6.754;2023-05-07T15:11:39;31.98;43.10
65460;DHT22;52058;49.822;6.754;2023-05-07T15:14:06;31.29;44.91
65460;DHT22;52058;49.822;6.754;2023-05-07T15:16:32;30.39;45.27
65460;DHT22;52058;49.822;6.754;2023-05-07T15:19:00;30.70;45.74
65460;DHT22;52058;49.822;6.754;2023-05-07T15:21:27;29.38;47.34
65460;DHT22;52058;49.822;6.754;2023-05-07T15:23:55;28.53;49.10
65460;DHT22;52058;49.822;6.754;2023-05-07T15:26:22;27.60;50.53
65460;DHT22;52058;49.822;6.754;2023-05-07T15:28:49;27.80;52.71
65460;DHT22;52058;49.822;6.754;2023-05-07T15:31:16;27.46;51.78
65460;DHT22;52058;49.822;6.754;2023-05-07T15:33:42;26.47;52.40
65460;DHT22;52058;49.822;6.754;2023-05-07T15:36:11;26.37;53.21
65460;DHT22;52058;49.822;6.754;2023-05-07T15:38:37;25.73;53.38
65460;DHT22;52058;49.822;6.754;2023-05-07T15:41:04;25.69;54.82